Time;durP1;ratioP1;P1;durP2;ratioP2;P2;SDS_P1;SDS_P2;PMS_P1;PMS_P2;Temp;Humidity;BMP_temperature;BMP_pressure;BME280_temperature;BME280_humidity;BME280_pressure;Samples;Min_cycle;Max_cycle;Signal;HPM_P1;HPM_P2
2023/01/17 00:00:15;;;;;;;3.45;1.25;;;;;;;;;;5035406;28;20045;-73
2023/01/17 00:02:41;;;;;;;9.38;1.40;;;;;;;;;;5053796;28;20183;-74
2023/01/17 00:10:39;;;;;;;12.57;1.63;;;;;;;;;;5055172;28;20044;-73
2023/01/17 00:13:05;;;;;;;12.65;2.30;;;;;;;;;;5055058;28;20049;-73
2023/01/17 00:15:31;;;;;;;7.60;1.60;;;;;;;;;;5055073;28;20037;-73
2023/01/17 00:17:58;;;;;;;10.15;1.73;;;;;;;;;;5055220;28;20041;-73
2023/01/17 00:26:03;;;;;;;7.28;1.55;;;;;;;;;;5054949;28;20052;-73
2023/01/17 01:35:53;;;;;;;11.57;1.30;;;3.70;99.90;;;;;;5033933;28;20049;-74
2023/01/17 01:38:20;;;;;;;16.08;2.90;;;;;;;;;;5033622;28;20099;-74
2023/01/17 01:40:48;;;;;;;9.68;1.60;;;;;;;;;;5033798;28;20128;-73
2023/01/17 01:43:17;;;;;;;12.45;1.60;;;3.70;99.90;;;;;;5033738;28;20041;-74
2023/01/17 01:45:54;;;;;;;17.20;2.15;;;3.70;99.90;;;;;;5033770;28;20053;-74
2023/01/17 01:49:16;;;;;;;9.18;1.38;;;3.70;99.90;;;;;;5033234;28;20183;-71
2023/01/17 01:51:46;;;;;;;9.23;1.65;;;3.70;99.90;;;;;;5027446;28;20164;-70
2023/01/17 01:54:19;;;;;;;12.23;1.42;;;;;;;;;;5033430;28;20042;-71
2023/01/17 01:56:48;;;;;;;19.90;1.80;;;3.80;99.90;;;;;;5033426;28;20046;-69
2023/01/17 01:59:15;;;;;;;15.38;2.67;;;;;;;;;;5033560;28;20110;-70
2023/01/17 02:01:41;;;;;;;11.80;1.80;;;;;;;;;;5033404;28;20046;-70
2023/01/17 02:04:08;;;;;;;11.35;2.38;;;3.80;99.90;;;;;;5033479;28;20120;-70
2023/01/17 02:06:36;;;;;;;12.43;2.05;;;;;;;;;;5032688;28;20049;-70
2023/01/17 02:09:05;;;;;;;7.63;1.40;;;3.50;99.90;;;;;;5032984;28;20045;-71
2023/01/17 02:11:33;;;;;;;12.82;2.60;;;3.50;99.90;;;;;;5016324;28;20116;-71
2023/01/17 02:13:59;;;;;;;15.73;2.10;;;;;;;;;;5032861;28;20048;-70
2023/01/17 02:16:31;;;;;;;17.40;2.80;;;;;;;;;;5032913;28;20092;-70
2023/01/17 02:19:34;;;;;;;7.60;1.60;;;3.60;99.90;;;;;;5032946;28;20045;-70
2023/01/17 02:22:35;;;;;;;9.60;1.63;;;3.30;99.90;;;;;;5033181;28;20050;-70
2023/01/17 02:25:01;;;;;;;9.85;2.08;;;;;;;;;;5032781;28;20045;-70
2023/01/17 02:28:03;;;;;;;19.48;2.03;;;3.50;99.90;;;;;;5032733;28;20128;-71
2023/01/17 02:30:38;;;;;;;7.07;1.50;;;3.40;99.90;;;;;;4995636;28;20496;-70
2023/01/17 02:33:13;;;;;;;5.35;1.38;;;;;;;;;;5026970;28;20050;-70
2023/01/17 02:35:39;;;;;;;12.32;1.55;;;;;;;;;;5032925;28;20087;-70
2023/01/17 02:38:24;;;;;;;13.10;1.77;;;3.50;99.90;;;;;;5032859;28;20438;-71
2023/01/17 02:40:56;;;;;;;8.50;1.30;;;;;;;;;;5032772;28;20172;-70
2023/01/17 02:43:23;;;;;;;18.55;1.50;;;3.40;99.90;;;;;;5032373;28;20049;-71
2023/01/17 02:45:49;;;;;;;10.27;1.75;;;;;;;;;;5032696;28;20111;-71
2023/01/17 02:48:18;;;;;;;10.35;1.75;;;;;;;;;;5032075;28;20049;-72
2023/01/17 02:50:53;;;;;;;9.52;1.67;;;;;;;;;;5041882;28;20049;-71
2023/01/17 02:53:48;;;;;;;10.85;2.22;;;;;;;;;;5013936;28;20046;-71
2023/01/17 02:56:22;;;;;;;14.57;1.70;;;;;;;;;;5012983;28;20072;-71
2023/01/17 02:59:06;;;;;;;18.70;2.13;;;;;;;;;;5012654;28;20046;-71
2023/01/17 03:01:33;;;;;;;9.65;1.92;;;;;;;;;;5012643;28;20049;-71
2023/01/17 03:04:24;;;;;;;22.55;2.22;;;3.70;99.90;;;;;;5012541;28;20050;-71
2023/01/17 03:07:01;;;;;;;16.75;3.15;;;3.80;99.90;;;;;;5012550;28;20601;-71
2023/01/17 03:09:28;;;;;;;10.27;1.55;;;;;;;;;;5012359;28;20045;-71
2023/01/17 03:11:54;;;;;;;18.85;2.58;;;;;;;;;;5012411;28;20042;-71
2023/01/17 03:14:20;;;;;;;12.27;2.00;;;;;;;;;;4995989;28;20502;-71
2023/01/17 03:16:47;;;;;;;15.45;4.13;;;;;;;;;;5025439;28;20080;-71
2023/01/17 03:19:13;;;;;;;14.45;2.00;;;;;;;;;;5031500;28;20385;-71
2023/01/17 03:21:39;;;;;;;16.20;2.10;;;;;;;;;;5031797;28;20045;-71
2023/01/17 03:24:06;;;;;;;10.50;1.80;;;;;;;;;;5032036;28;20041;-71
2023/01/17 03:26:32;;;;;;;14.60;5.00;;;;;;;;;;5031858;28;20485;-71
2023/01/17 03:28:58;;;;;;;13.50;2.05;;;;;;;;;;5031282;28;20049;-71
2023/01/17 03:31:24;;;;;;;10.85;2.42;;;;;;;;;;5014194;28;20203;-71
2023/01/17 03:33:50;;;;;;;16.05;2.03;;;;;;;;;;5015392;28;20107;-71
2023/01/17 03:36:17;;;;;;;14.57;1.77;;;;;;;;;;5015283;28;20084;-71
2023/01/17 03:38:43;;;;;;;20.85;2.22;;;;;;;;;;4998601;28;20092;-71
2023/01/17 03:41:09;;;;;;;15.60;1.70;;;;;;;;;;5014914;28;20060;-71
2023/01/17 03:43:35;;;;;;;14.73;1.75;;;;;;;;;;5031897;28;20033;-71
2023/01/17 03:46:05;;;;;;;8.25;1.48;;;;;;;;;;5015474;28;20127;-70
2023/01/17 03:48:32;;;;;;;12.52;1.63;;;;;;;;;;5031381;28;20076;-70
2023/01/17 03:50:58;;;;;;;13.50;1.52;;;;;;;;;;5031651;28;20052;-70
2023/01/17 03:53:24;;;;;;;8.10;1.85;;;;;;;;;;5031543;28;20081;-70
2023/01/17 03:55:52;;;;;;;4.53;1.10;;;;;;;;;;5031514;28;20574;-71
2023/01/17 03:58:18;;;;;;;13.07;1.42;;;;;;;;;;5031748;28;20159;-70
2023/01/17 04:00:45;;;;;;;7.22;2.00;;;;;;;;;;5031607;28;20501;-71
2023/01/17 04:03:11;;;;;;;6.43;1.20;;;;;;;;;;5031744;28;20041;-71
2023/01/17 04:05:37;;;;;;;9.70;2.08;;;;;;;;;;5031482;28;20061;-70
2023/01/17 04:08:05;;;;;;;8.88;1.30;;;;;;;;;;5015012;28;20050;-70
2023/01/17 04:10:31;;;;;;;8.20;1.50;;;;;;;;;;5031345;28;20076;-70
2023/01/17 04:12:57;;;;;;;6.18;1.50;;;;;;;;;;5031288;28;20046;-70
2023/01/17 04:15:23;;;;;;;6.88;1.48;;;;;;;;;;5031612;28;20048;-70
2023/01/17 04:17:49;;;;;;;17.00;1.77;;;;;;;;;;5031361;28;20056;-70
2023/01/17 04:20:17;;;;;;;9.95;1.75;;;;;;;;;;5031268;28;20046;-71
2023/01/17 04:22:43;;;;;;;10.75;1.50;;;;;;;;;;5031192;28;20045;-70
2023/01/17 04:25:09;;;;;;;11.98;1.75;;;;;;;;;;5031510;28;20103;-70
2023/01/17 04:27:36;;;;;;;15.45;3.00;;;;;;;;;;5031093;28;20137;-71
2023/01/17 04:30:02;;;;;;;4.93;1.70;;;;;;;;;;5017266;28;20126;-70
2023/01/17 04:32:28;;;;;;;19.35;2.28;;;;;;;;;;5034839;28;20045;-70
2023/01/17 04:34:54;;;;;;;14.77;1.98;;;;;;;;;;5035400;28;20042;-70
2023/01/17 04:37:20;;;;;;;10.98;1.60;;;;;;;;;;5034735;28;20072;-70
2023/01/17 04:39:46;;;;;;;26.90;2.13;;;;;;;;;;5034632;28;20524;-70
2023/01/17 04:42:12;;;;;;;13.18;1.52;;;;;;;;;;5034753;28;20468;-70
2023/01/17 04:44:44;;;;;;;10.25;1.77;;;;;;;;;;5034971;28;20128;-70
2023/01/17 04:47:10;;;;;;;15.32;2.47;;;;;;;;;;5034534;28;20042;-70
2023/01/17 04:49:36;;;;;;;16.25;2.28;;;;;;;;;;5034428;28;20049;-70
2023/01/17 04:52:02;;;;;;;19.70;1.60;;;;;;;;;;5017221;28;20038;-70
2023/01/17 04:54:28;;;;;;;17.67;2.25;;;;;;;;;;4982631;28;20080;-70
2023/01/17 04:56:54;;;;;;;16.60;1.95;;;;;;;;;;5014719;28;20053;-70
2023/01/17 04:59:21;;;;;;;7.82;1.63;;;;;;;;;;5014637;28;20045;-70
2023/01/17 05:01:48;;;;;;;11.48;1.10;;;;;;;;;;5014656;28;20409;-73
2023/01/17 05:04:14;;;;;;;13.98;1.70;;;;;;;;;;5014839;28;20485;-74
2023/01/17 05:06:40;;;;;;;6.97;1.60;;;;;;;;;;5014853;28;20394;-73
2023/01/17 05:09:06;;;;;;;10.93;1.80;;;;;;;;;;5014479;28;20116;-73
2023/01/17 05:11:32;;;;;;;9.75;1.80;;;;;;;;;;4998510;28;20124;-73
2023/01/17 05:13:59;;;;;;;14.40;1.88;;;;;;;;;;5014394;28;20104;-73
2023/01/17 05:16:25;;;;;;;9.73;1.40;;;;;;;;;;5014298;28;20145;-74
2023/01/17 05:18:52;;;;;;;10.25;2.00;;;;;;;;;;4997924;28;20041;-73
2023/01/17 05:21:18;;;;;;;4.05;1.38;;;;;;;;;;5014411;28;20042;-74
2023/01/17 05:23:44;;;;;;;7.20;1.30;;;;;;;;;;5014190;28;20046;-74
2023/01/17 05:26:10;;;;;;;21.58;1.85;;;;;;;;;;5014182;28;20045;-73
2023/01/17 05:28:36;;;;;;;10.45;1.92;;;;;;;;;;5013874;28;20046;-73
2023/01/17 05:31:02;;;;;;;7.95;1.40;;;;;;;;;;5013938;28;20390;-74
2023/01/17 05:33:28;;;;;;;12.02;2.08;;;;;;;;;;5014317;28;20042;-74
2023/01/17 05:35:55;;;;;;;13.52;1.63;;;;;;;;;;5013921;28;20128;-74
2023/01/17 05:38:22;;;;;;;8.18;1.40;;;;;;;;;;5013871;28;20080;-74
2023/01/17 05:40:48;;;;;;;3.38;1.25;;;;;;;;;;5013230;28;20061;-74
2023/01/17 05:43:14;;;;;;;8.70;1.77;;;;;;;;;;5013926;28;20053;-73
2023/01/17 05:45:40;;;;;;;11.98;2.13;;;;;;;;;;5013628;28;20053;-73
2023/01/17 05:48:06;;;;;;;9.02;1.27;;;;;;;;;;5013512;28;20056;-74
2023/01/17 05:50:34;;;;;;;5.60;2.08;;;;;;;;;;5018663;28;20045;-74
2023/01/17 05:53:05;;;;;;;7.43;1.30;;;;;;;;;;5035317;28;20082;-74
2023/01/17 05:55:32;;;;;;;6.63;1.13;;;3.30;99.90;;;;;;5033295;28;20485;-74
2023/01/17 05:57:58;;;;;;;8.70;1.60;;;;;;;;;;5017212;28;20511;-74
2023/01/17 06:00:24;;;;;;;11.50;1.48;;;;;;;;;;5033261;28;20041;-74
2023/01/17 06:02:54;;;;;;;8.07;1.73;;;;;;;;;;5033340;28;20091;-74
2023/01/17 06:05:21;;;;;;;6.95;1.40;;;;;;;;;;5033061;28;20053;-74
2023/01/17 06:07:47;;;;;;;5.53;1.58;;;;;;;;;;5032933;28;20055;-74
2023/01/17 06:10:14;;;;;;;10.35;2.10;;;;;;;;;;5033101;28;20124;-74
2023/01/17 06:12:41;;;;;;;3.67;1.38;;;;;;;;;;5033297;28;20042;-74
2023/01/17 06:15:07;;;;;;;13.55;1.83;;;;;;;;;;5032889;28;20064;-74
2023/01/17 06:17:34;;;;;;;5.43;1.50;;;;;;;;;;5033812;28;20037;-74
2023/01/17 06:20:00;;;;;;;12.38;2.03;;;;;;;;;;5032990;28;20449;-74
2023/01/17 06:22:26;;;;;;;8.18;1.63;;;;;;;;;;5016344;28;20550;-74
2023/01/17 06:24:52;;;;;;;7.53;1.77;;;;;;;;;;5032904;28;20103;-74
2023/01/17 06:27:18;;;;;;;10.60;1.83;;;;;;;;;;5018942;28;20493;-74
2023/01/17 06:29:44;;;;;;;5.00;2.10;;;;;;;;;;5051806;28;20047;-74
2023/01/17 06:32:12;;;;;;;5.65;1.90;;;;;;;;;;5041409;28;20041;-74
2023/01/17 06:34:39;;;;;;;12.60;1.48;;;;;;;;;;5000143;28;20095;-74
2023/01/17 06:37:05;;;;;;;9.43;1.73;;;;;;;;;;5032784;28;20037;-74
2023/01/17 06:39:32;;;;;;;12.10;1.70;;;;;;;;;;5016428;28;20044;-72
2023/01/17 06:41:58;;;;;;;7.00;1.63;;;;;;;;;;5032479;28;20041;-70
2023/01/17 06:44:25;;;;;;;8.40;1.90;;;;;;;;;;5032443;28;20044;-74
2023/01/17 06:46:51;;;;;;;7.63;1.75;;;;;;;;;;5016195;28;20079;-74
2023/01/17 06:49:17;;;;;;;7.50;1.60;;;;;;;;;;5015738;28;20397;-74
2023/01/17 06:51:43;;;;;;;14.32;2.17;;;;;;;;;;5015803;28;20440;-74
2023/01/17 06:54:10;;;;;;;9.82;2.17;;;;;;;;;;5032413;28;20033;-74
2023/01/17 06:56:36;;;;;;;7.32;2.72;;;;;;;;;;5032126;28;20128;-74
2023/01/17 06:59:02;;;;;;;7.53;2.00;;;;;;;;;;5032240;28;20045;-74
2023/01/17 07:01:28;;;;;;;7.57;1.40;;;;;;;;;;5031945;28;20073;-74
2023/01/17 07:03:54;;;;;;;3.10;1.40;;;;;;;;;;5032144;28;20048;-73
2023/01/17 07:06:22;;;;;;;16.98;2.95;;;;;;;;;;5032008;28;20095;-74
2023/01/17 07:08:48;;;;;;;5.68;1.80;;;;;;;;;;4999779;28;20077;-74
2023/01/17 07:11:14;;;;;;;16.75;2.00;;;;;;;;;;5015648;28;20052;-74
2023/01/17 07:13:41;;;;;;;14.77;2.08;;;;;;;;;;5032214;28;20508;-75
2023/01/17 07:16:07;;;;;;;8.38;2.15;;;;;;;;;;5031867;28;20076;-75
2023/01/17 07:18:34;;;;;;;9.57;1.65;;;;;;;;;;4998933;28;20045;-75
2023/01/17 07:21:00;;;;;;;13.15;1.80;;;3.10;99.90;;;;;;5014383;28;20124;-75
2023/01/17 07:23:26;;;;;;;9.05;1.70;;;;;;;;;;5031301;28;20052;-75
2023/01/17 07:25:53;;;;;;;12.27;1.65;;;;;;;;;;5030955;28;20037;-75
2023/01/17 07:28:19;;;;;;;7.43;1.77;;;;;;;;;;5030869;28;20124;-75
2023/01/17 07:30:45;;;;;;;7.10;1.77;;;;;;;;;;5030807;28;20081;-75
2023/01/17 07:33:11;;;;;;;5.90;1.98;;;;;;;;;;5014512;28;20037;-75
2023/01/17 07:35:38;;;;;;;14.80;2.13;;;;;;;;;;5031365;28;20091;-75
2023/01/17 07:38:10;;;;;;;5.68;1.83;;;;;;;;;;5015547;28;20046;-75
2023/01/17 07:40:39;;;;;;;12.75;2.17;;;;;;;;;;5031673;28;20449;-75
2023/01/17 07:43:15;;;;;;;12.48;1.70;;;;;;;;;;5031688;28;20048;-75
2023/01/17 07:45:42;;;;;;;8.88;1.48;;;;;;;;;;5032164;28;20042;-75
2023/01/17 07:48:09;;;;;;;5.43;1.40;;;;;;;;;;5031369;28;20542;-75
2023/01/17 07:50:35;;;;;;;7.35;1.60;;;;;;;;;;5015382;28;20038;-75
2023/01/17 07:53:01;;;;;;;8.48;1.70;;;;;;;;;;5031813;28;20151;-75
2023/01/17 07:55:27;;;;;;;8.18;1.50;;;;;;;;;;4998841;28;20042;-76
2023/01/17 07:57:53;;;;;;;3.97;1.38;;;;;;;;;;5031258;28;20088;-76
2023/01/17 08:00:21;;;;;;;16.92;4.72;;;;;;;;;;5031567;28;20046;-77
2023/01/17 08:02:48;;;;;;;9.85;1.58;;;;;;;;;;5015383;28;20482;-77
2023/01/17 08:05:14;;;;;;;4.10;1.67;;;;;;;;;;5034344;28;20056;-77
2023/01/17 08:07:40;;;;;;;10.65;1.70;;;;;;;;;;5035467;28;20041;-74
2023/01/17 08:10:11;;;;;;;13.80;1.90;;;;;;;;;;5035223;28;20041;-74
2023/01/17 08:12:37;;;;;;;10.25;1.67;;;;;;;;;;5035496;28;20448;-74
2023/01/17 08:15:04;;;;;;;6.70;1.88;;;;;;;;;;5037304;28;20049;-75
2023/01/17 08:17:33;;;;;;;7.47;1.95;;;;;;;;;;5047889;28;20488;-76
2023/01/17 08:20:02;;;;;;;12.75;2.10;;;;;;;;;;5035523;28;20051;-77
2023/01/17 08:22:30;;;;;;;5.82;1.63;;;;;;;;;;5019335;28;20033;-77
2023/01/17 08:24:56;;;;;;;8.88;2.08;;;;;;;;;;5034914;28;20128;-77
2023/01/17 08:27:25;;;;;;;11.00;2.70;;;;;;;;;;5035228;28;20051;-77
2023/01/17 08:29:51;;;;;;;8.05;2.05;;;;;;;;;;5018984;28;20429;-78
2023/01/17 08:32:20;;;;;;;6.25;2.05;;;;;;;;;;5018752;28;20064;-77
2023/01/17 08:34:46;;;;;;;17.45;4.22;;;;;;;;;;5018466;28;20044;-77
2023/01/17 08:37:13;;;;;;;8.85;2.38;;;;;;;;;;5035097;28;20029;-77
2023/01/17 08:39:39;;;;;;;6.43;2.15;;;;;;;;;;5034739;28;20048;-77
2023/01/17 08:42:05;;;;;;;13.82;2.10;;;;;;;;;;5018392;28;20504;-76
2023/01/17 08:44:32;;;;;;;6.60;1.88;;;;;;;;;;5034829;28;20071;-77
2023/01/17 08:47:01;;;;;;;23.60;3.30;;;;;;;;;;5034612;28;20038;-77
2023/01/17 08:49:28;;;;;;;9.15;2.33;;;;;;;;;;5034352;28;20053;-78
2023/01/17 08:51:54;;;;;;;12.85;2.00;;;;;;;;;;5017893;28;20042;-77
2023/01/17 08:54:21;;;;;;;11.77;1.98;;;;;;;;;;5018432;28;20033;-77
2023/01/17 08:56:48;;;;;;;14.80;1.98;;;;;;;;;;5018597;28;20056;-78
2023/01/17 08:59:14;;;;;;;10.55;1.70;;;;;;;;;;5018002;28;20103;-76
2023/01/17 09:01:44;;;;;;;2.63;1.23;;;;;;;;;;5018369;28;20037;-78
2023/01/17 09:04:11;;;;;;;4.70;1.27;;;;;;;;;;5017967;28;20087;-77
2023/01/17 09:06:40;;;;;;;6.40;1.52;;;3.60;99.90;;;;;;5034691;28;20041;-77
2023/01/17 09:09:07;;;;;;;3.35;1.40;;;3.50;99.90;;;;;;5017575;28;20473;-76
2023/01/17 09:11:34;;;;;;;4.55;1.38;;;;;;;;;;5017936;28;20156;-77
2023/01/17 09:14:03;;;;;;;4.65;1.50;;;;;;;;;;5034135;28;20125;-77
2023/01/17 09:16:29;;;;;;;10.82;1.88;;;;;;;;;;5017794;28;20044;-77
2023/01/17 09:18:56;;;;;;;5.03;1.48;;;;;;;;;;5017335;28;20041;-76
2023/01/17 09:21:26;;;;;;;9.02;1.40;;;;;;;;;;5026568;28;20063;-74
2023/01/17 09:23:53;;;;;;;6.85;1.50;;;;;;;;;;5039066;28;20405;-75
2023/01/17 09:26:21;;;;;;;5.30;1.48;;;;;;;;;;5017872;28;20567;-76
2023/01/17 09:28:48;;;;;;;6.22;1.80;;;;;;;;;;5017222;28;20046;-76
2023/01/17 09:31:14;;;;;;;10.23;1.77;;;;;;;;;;5034483;28;20033;-77
2023/01/17 09:33:41;;;;;;;4.78;1.40;;;;;;;;;;5033764;28;20045;-73
2023/01/17 09:36:09;;;;;;;9.65;1.73;;;3.80;99.90;;;;;;5017562;28;20052;-74
2023/01/17 09:38:36;;;;;;;3.08;1.27;;;;;;;;;;5033759;28;20037;-74
2023/01/17 09:41:03;;;;;;;4.72;1.42;;;;;;;;;;5033996;28;20041;-73
2023/01/17 09:43:35;;;;;;;4.45;1.70;;;;;;;;;;5033474;28;20049;-73
2023/01/17 09:46:01;;;;;;;5.93;1.70;;;;;;;;;;5017363;28;20038;-73
2023/01/17 09:48:36;;;;;;;9.52;2.60;;;4.10;99.90;;;;;;5016369;28;20501;-73
2023/01/17 09:51:20;;;;;;;9.43;2.13;;;4.10;99.90;;;;;;5016881;28;20038;-73
2023/01/17 09:53:48;;;;;;;7.38;2.00;;;;;;;;;;5045412;28;20453;-73
2023/01/17 09:56:17;;;;;;;9.13;1.83;;;;;;;;;;5053802;28;20516;-72
2023/01/17 09:59:07;;;;;;;6.60;1.92;;;;;;;;;;5016856;28;20449;-72
2023/01/17 10:01:52;;;;;;;6.03;1.88;;;4.40;99.90;;;;;;5031801;28;20063;-72
2023/01/17 10:05:16;;;;;;;6.82;1.85;;;4.20;99.90;;;;;;5017108;28;20060;-72
2023/01/17 10:07:54;;;;;;;10.23;2.30;;;;;;;;;;4995857;28;20458;-72
2023/01/17 10:10:26;;;;;;;17.10;2.95;;;;;;;;;;4980126;28;20041;-72
2023/01/17 10:13:34;;;;;;;19.15;3.15;;;4.20;99.90;;;;;;5039098;28;20041;-72
2023/01/17 10:16:01;;;;;;;7.05;2.10;;;;;;;;;;5011305;28;20085;-73
2023/01/17 10:18:46;;;;;;;49.88;3.03;;;;;;;;;;5032969;28;20037;-73
2023/01/17 10:21:16;;;;;;;7.18;2.25;;;;;;;;;;5016422;28;20045;-72
2023/01/17 10:24:28;;;;;;;8.90;2.20;;;4.20;99.90;;;;;;5017148;28;20140;-72
2023/01/17 10:26:55;;;;;;;9.82;2.35;;;;;;;;;;5015440;28;20489;-73
2023/01/17 10:29:22;;;;;;;12.55;2.15;;;;;;;;;;5030991;28;20077;-72
2023/01/17 10:31:54;;;;;;;4.47;1.90;;;;;;;;;;5031873;28;20520;-72
2023/01/17 10:34:39;;;;;;;9.57;2.22;;;;;;;;;;5015868;28;20084;-72
2023/01/17 10:37:14;;;;;;;8.50;2.47;;;4.40;99.90;;;;;;5031637;28;20051;-72
2023/01/17 10:39:42;;;;;;;11.93;2.30;;;4.40;99.90;;;;;;5032544;28;20482;-72
2023/01/17 10:42:31;;;;;;;5.93;2.00;;;;;;;;;;5032511;28;20041;-72
2023/01/17 10:45:32;;;;;;;9.20;2.65;;;4.70;99.90;;;;;;5032671;28;20052;-72
2023/01/17 10:48:11;;;;;;;8.25;2.05;;;4.60;99.90;;;;;;5021384;28;20137;-72
2023/01/17 10:51:12;;;;;;;8.45;2.42;;;4.80;99.90;;;;;;5032099;28;20047;-72
2023/01/17 10:53:41;;;;;;;10.48;2.20;;;;;;;;;;4964785;28;20039;-72
2023/01/17 10:56:08;;;;;;;5.43;1.83;;;;;;;;;;5016087;28;20064;-72
2023/01/17 10:58:34;;;;;;;9.23;2.45;;;;;;;;;;5012635;28;20137;-72
2023/01/17 11:01:26;;;;;;;16.40;2.60;;;;;;;;;;5038828;28;20116;-72
2023/01/17 11:03:54;;;;;;;6.15;1.60;;;;;;;;;;5039944;28;20444;-72
2023/01/17 11:06:24;;;;;;;7.85;1.88;;;;;;;;;;5021796;28;20385;-72
2023/01/17 11:08:57;;;;;;;12.82;1.85;;;;;;;;;;5040857;28;20037;-72
2023/01/17 11:11:35;;;;;;;8.60;2.22;;;;;;;;;;5039080;28;20033;-72
2023/01/17 11:14:04;;;;;;;8.32;2.30;;;;;;;;;;5040637;28;20052;-72
2023/01/17 11:16:30;;;;;;;7.78;1.83;;;4.60;99.90;;;;;;5041055;28;20512;-71
2023/01/17 11:19:35;;;;;;;9.43;1.90;;;4.60;99.90;;;;;;5042363;28;20049;-72
2023/01/17 11:22:04;;;;;;;15.52;2.50;;;5.00;99.90;;;;;;4997788;28;20047;-72
2023/01/17 11:24:50;;;;;;;10.63;2.45;;;4.80;99.90;;;;;;5015110;28;20051;-72
2023/01/17 11:27:26;;;;;;;9.70;2.00;;;5.00;99.90;;;;;;5025279;28;20115;-72
2023/01/17 11:30:02;;;;;;;7.07;2.10;;;;;;;;;;5042143;28;20080;-72
2023/01/17 11:32:30;;;;;;;9.50;1.98;;;;;;;;;;5056490;28;20048;-71
2023/01/17 11:35:12;;;;;;;11.27;2.10;;;;;;;;;;5047741;28;20194;-70
2023/01/17 11:37:39;;;;;;;7.63;2.17;;;;;;;;;;5051991;28;20049;-72
2023/01/17 11:40:07;;;;;;;9.65;2.40;;;;;;;;;;5071576;28;20397;-71
2023/01/17 11:42:35;;;;;;;9.20;2.03;;;5.40;99.90;;;;;;5056101;28;20511;-72
2023/01/17 11:45:25;;;;;;;6.30;2.40;;;5.60;99.90;;;;;;5055759;28;20102;-72
2023/01/17 11:48:04;;;;;;;9.80;3.45;;;;;;;;;;5049641;28;20049;-72
2023/01/17 11:50:30;;;;;;;9.00;2.20;;;;;;;;;;5050783;28;20160;-72
2023/01/17 11:53:06;;;;;;;9.00;2.08;;;;;;;;;;5035611;28;20048;-71
2023/01/17 11:55:33;;;;;;;7.18;1.73;;;;;;;;;;5035926;28;20049;-72
2023/01/17 11:57:59;;;;;;;7.53;2.10;;;;;;;;;;5019089;28;20047;-72
2023/01/17 12:00:36;;;;;;;8.88;1.42;;;;;;;;;;5035573;28;20048;-72
2023/01/17 12:03:28;;;;;;;6.55;1.70;;;6.00;99.90;;;;;;5035731;28;20037;-72
2023/01/17 12:05:54;;;;;;;5.25;1.73;;;;;;;;;;5018941;28;20520;-72
2023/01/17 12:08:50;;;;;;;8.77;2.28;;;6.00;99.90;;;;;;5035205;28;20041;-72
2023/01/17 12:14:43;;;;;;;7.32;1.58;;;;;;;;;;5035504;28;20076;-71
2023/01/17 12:17:10;;;;;;;7.13;2.22;;;;;;;;;;5035277;28;20033;-72
2023/01/17 12:19:59;;;;;;;13.48;1.95;;;;;;;;;;5035099;28;20053;-72
2023/01/17 12:22:33;;;;;;;8.60;1.90;;;;;;;;;;5035028;28;20099;-72
2023/01/17 12:25:22;;;;;;;5.60;1.75;;;;;;;;;;5035370;28;20385;-72
2023/01/17 12:28:15;;;;;;;15.73;2.00;;;;;;;;;;5035256;28;20128;-72
2023/01/17 12:31:31;;;;;;;7.68;1.98;;;5.70;99.90;;;;;;5035014;28;20515;-72
2023/01/17 12:34:02;;;;;;;7.82;1.63;;;;;;;;;;5006390;28;20381;-72
2023/01/17 12:36:50;;;;;;;9.43;1.88;;;5.80;99.90;;;;;;5034942;28;20048;-72
2023/01/17 12:39:21;;;;;;;6.22;1.85;;;5.90;99.90;;;;;;5018282;28;20048;-72
2023/01/17 12:41:52;;;;;;;10.55;2.58;;;;;;;;;;5037421;28;20068;-72
2023/01/17 12:44:22;;;;;;;8.65;2.17;;;;;;;;;;5032875;28;20540;-72
2023/01/17 12:46:53;;;;;;;6.88;1.88;;;;;;;;;;5034510;28;20037;-72
2023/01/17 12:49:22;;;;;;;5.28;1.77;;;;;;;;;;5032320;28;20058;-72
2023/01/17 12:51:57;;;;;;;12.90;2.38;;;5.90;99.90;;;;;;5033244;28;20042;-70
2023/01/17 12:54:36;;;;;;;6.25;2.17;;;;;;;;;;5034619;28;20136;-73
2023/01/17 12:57:23;;;;;;;8.10;1.80;;;5.90;99.90;;;;;;5034514;28;20073;-71
2023/01/17 12:59:49;;;;;;;9.80;1.77;;;;;;;;;;5034447;28;20075;-70
2023/01/17 13:02:20;;;;;;;11.50;1.88;;;;;;;;;;5035030;28;20073;-70
2023/01/17 13:04:59;;;;;;;11.70;2.10;;;;;;;;;;5034257;28;20124;-70
2023/01/17 13:07:28;;;;;;;5.78;1.48;;;;;;;;;;5034627;28;20064;-70
2023/01/17 13:09:58;;;;;;;10.00;1.60;;;;;;;;;;5017861;28;20104;-70
2023/01/17 13:12:26;;;;;;;4.90;1.48;;;;;;;;;;5019502;28;20041;-76
2023/01/17 13:14:52;;;;;;;3.22;1.50;;;;;;;;;;5018275;28;20036;-75
2023/01/17 13:17:37;;;;;;;5.65;1.85;;;;;;;;;;5034287;28;20033;-75
2023/01/17 13:20:12;;;;;;;2.95;1.50;;;;;;;;;;5034267;28;20048;-75
2023/01/17 13:22:40;;;;;;;8.85;1.80;;;6.50;99.90;;;;;;5017470;28;20531;-75
2023/01/17 13:25:29;;;;;;;7.35;1.90;;;;;;;;;;5001343;28;20037;-75
2023/01/17 13:28:02;;;;;;;6.45;1.80;;;6.90;99.90;;;;;;5032997;28;20063;-75
2023/01/17 13:30:34;;;;;;;17.73;2.20;;;;;;;;;;5033880;28;20049;-76
2023/01/17 13:33:35;;;;;;;6.10;2.58;;;6.80;99.90;;;;;;5032831;28;20046;-76
2023/01/17 13:36:04;;;;;;;5.20;1.77;;;;;;;;;;5017141;28;20037;-76
2023/01/17 13:38:33;;;;;;;6.28;1.45;;;;;;;;;;5034575;28;20081;-76
2023/01/17 13:41:15;;;;;;;7.07;1.88;;;;;;;;;;5034242;28;20071;-75
2023/01/17 13:44:20;;;;;;;5.55;1.55;;;;;;;;;;5017391;28;20042;-76
2023/01/17 13:47:14;;;;;;;5.03;1.92;;;5.90;99.90;;;;;;5033724;28;20052;-75
2023/01/17 13:49:41;;;;;;;8.00;2.38;;;;;;;;;;5025441;28;20085;-76
2023/01/17 13:52:11;;;;;;;7.50;2.25;;;;;;;;;;5033375;28;20503;-76
2023/01/17 13:54:49;;;;;;;8.40;2.42;;;;;;;;;;5033554;28;20046;-76
2023/01/17 13:57:40;;;;;;;9.32;2.58;;;;;;;;;;5033469;28;20041;-75
2023/01/17 14:00:20;;;;;;;7.40;3.00;;;;;;;;;;5033382;28;20078;-76
2023/01/17 14:02:50;;;;;;;10.65;2.88;;;6.30;99.90;;;;;;5032839;28;20168;-75
2023/01/17 14:05:19;;;;;;;7.30;2.08;;;;;;;;;;5017174;28;20037;-76
2023/01/17 14:07:45;;;;;;;15.05;3.47;;;;;;;;;;5016631;28;20048;-76
2023/01/17 14:10:29;;;;;;;5.35;2.60;;;;;;;;;;5033155;28;20040;-75
2023/01/17 14:12:56;;;;;;;7.45;1.85;;;;;;;;;;5033197;28;20045;-75
2023/01/17 14:15:23;;;;;;;4.75;1.90;;;;;;;;;;5016648;28;20044;-76
2023/01/17 14:17:54;;;;;;;7.28;1.90;;;6.60;99.90;;;;;;5033496;28;20053;-76
2023/01/17 14:20:27;;;;;;;3.80;1.63;;;;;;;;;;5033133;28;20478;-76
2023/01/17 14:22:59;;;;;;;4.88;1.70;;;6.40;99.90;;;;;;5016842;28;20045;-76
2023/01/17 14:25:36;;;;;;;6.68;2.00;;;6.40;99.90;;;;;;5033214;28;20125;-76
2023/01/17 14:28:17;;;;;;;11.23;3.50;;;6.40;99.90;;;;;;5033371;28;20050;-76
2023/01/17 14:30:44;;;;;;;7.18;2.20;;;;;;;;;;5016822;28;20049;-76
2023/01/17 14:33:22;;;;;;;7.78;2.35;;;6.30;99.90;;;;;;5033069;28;20512;-76
2023/01/17 14:35:53;;;;;;;4.57;1.80;;;6.30;99.90;;;;;;5016478;28;20397;-76
2023/01/17 14:38:22;;;;;;;9.45;1.95;;;;;;;;;;5032888;28;20505;-76
2023/01/17 14:40:59;;;;;;;10.27;1.90;;;;;;;;;;5016313;28;20041;-75
2023/01/17 14:43:27;;;;;;;5.88;1.88;;;;;;;;;;5033151;28;20081;-78
2023/01/17 14:46:07;;;;;;;7.10;2.13;;;;;;;;;;5032955;28;20049;-75
2023/01/17 14:48:38;;;;;;;6.55;2.10;;;6.00;99.90;;;;;;5032512;28;20418;-76
2023/01/17 14:51:11;;;;;;;9.30;2.13;;;;;;;;;;5032427;28;20050;-79
2023/01/17 14:53:37;;;;;;;;;;;;;;;;;;5033121;28;20047;-76
2023/01/17 14:56:12;;;;;;;7.50;2.22;;;;;;;;;;5032380;28;20367;-76
2023/01/17 14:58:40;;;;;;;10.77;2.70;;;;;;;;;;5032286;28;20048;-76
2023/01/17 15:01:13;;;;;;;4.90;1.88;;;;;;;;;;5032714;28;20056;-76
2023/01/17 15:03:45;;;;;;;6.13;2.15;;;;;;;;;;5032201;28;20049;-75
2023/01/17 15:06:25;;;;;;;2.40;1.65;;;5.20;99.90;;;;;;5032195;28;20052;-75
2023/01/17 15:08:52;;;;;;;6.03;1.85;;;;;;;;;;5031894;28;20041;-76
2023/01/17 15:11:29;;;;;;;9.43;2.30;;;;;;;;;;5032445;28;20049;-76
2023/01/17 15:13:57;;;;;;;13.48;2.00;;;;;;;;;;5031822;28;20493;-76
2023/01/17 15:16:27;;;;;;;12.60;2.67;;;5.20;99.90;;;;;;5032007;28;20052;-76
2023/01/17 15:18:54;;;;;;;8.20;2.10;;;;;;;;;;5031945;28;20393;-76
2023/01/17 15:21:29;;;;;;;15.23;3.50;;;;;;;;;;5014668;28;20393;-72
2023/01/17 15:24:01;;;;;;;12.27;3.65;;;4.80;99.90;;;;;;5015140;28;20045;-75
2023/01/17 15:26:28;;;;;;;9.45;3.90;;;;;;;;;;5028230;28;20041;-75
2023/01/17 15:29:04;;;;;;;14.05;3.72;;;4.90;99.90;;;;;;5039447;28;20043;-75
2023/01/17 15:31:45;;;;;;;12.48;2.83;;;;;;;;;;5031879;28;20045;-75
2023/01/17 15:34:21;;;;;;;6.63;2.10;;;;;;;;;;5031759;28;20045;-75
2023/01/17 15:36:48;;;;;;;6.85;2.55;;;;;;;;;;5032100;28;20389;-73
2023/01/17 15:39:22;;;;;;;9.63;2.10;;;;;;;;;;5015212;28;20038;-75
2023/01/17 15:41:51;;;;;;;5.97;2.10;;;;;;;;;;5031937;28;20120;-76
2023/01/17 15:44:23;;;;;;;9.63;2.10;;;;;;;;;;5013537;28;20038;-76
2023/01/17 15:46:49;;;;;;;9.27;3.00;;;;;;;;;;5011880;28;20477;-76
2023/01/17 15:49:20;;;;;;;13.23;2.50;;;;;;;;;;5011606;28;20046;-76
2023/01/17 15:51:53;;;;;;;5.30;2.67;;;;;;;;;;5011869;28;20060;-76
2023/01/17 15:54:32;;;;;;;7.35;2.33;;;;;;;;;;5012166;28;20042;-76
2023/01/17 15:57:18;;;;;;;12.88;2.55;;;;;;;;;;5011909;28;20042;-76
2023/01/17 15:59:50;;;;;;;6.00;2.30;;;;;;;;;;5011891;28;20073;-76
2023/01/17 16:02:37;;;;;;;5.72;2.55;;;4.40;99.90;;;;;;5012017;28;20104;-76